Time;durP1;ratioP1;P1;durP2;ratioP2;P2;SDS_P1;SDS_P2;PMS_P1;PMS_P2;Temp;Humidity;BMP_temperature;BMP_pressure;BME280_temperature;BME280_humidity;BME280_pressure;Samples;Min_cycle;Max_cycle;Signal;HPM_P1;HPM_P2
2021/12/03 00:00:49;;;;;;;5.53;3.40;;;4.50;99.90;;;;;;5094124;28;20028;-67
2021/12/03 00:03:16;;;;;;;6.22;3.40;;;4.50;99.90;;;;;;5093611;28;20032;-67
2021/12/03 00:05:42;;;;;;;5.10;3.03;;;4.40;99.90;;;;;;5093855;28;20460;-67
2021/12/03 00:08:09;;;;;;;6.07;3.90;;;4.50;99.90;;;;;;5092543;28;20024;-67
2021/12/03 00:10:37;;;;;;;6.38;4.05;;;4.40;99.90;;;;;;5092962;28;20090;-67
2021/12/03 00:13:04;;;;;;;7.32;3.83;;;4.40;99.90;;;;;;5092951;28;20481;-66
2021/12/03 00:15:30;;;;;;;7.10;3.40;;;4.40;99.90;;;;;;5093348;28;20040;-67
2021/12/03 00:17:55;;;;;;;5.30;3.40;;;4.40;99.90;;;;;;5093663;28;20024;-67
2021/12/03 00:20:24;;;;;;;7.43;3.13;;;4.40;99.90;;;;;;5094201;28;20034;-67
2021/12/03 00:22:51;;;;;;;6.38;2.83;;;4.40;99.90;;;;;;5096454;28;20110;-67
2021/12/03 00:25:18;;;;;;;6.05;3.47;;;4.40;99.90;;;;;;5098241;28;20035;-67
2021/12/03 00:27:44;;;;;;;6.75;3.50;;;4.30;99.90;;;;;;5097923;28;20074;-67
2021/12/03 00:30:12;;;;;;;8.00;3.47;;;4.30;99.90;;;;;;5097553;28;20043;-67
2021/12/03 00:32:38;;;;;;;4.03;2.60;;;4.30;99.90;;;;;;5097538;28;20038;-67
2021/12/03 00:35:05;;;;;;;5.22;3.30;;;4.30;99.90;;;;;;5097730;28;20345;-66
2021/12/03 00:37:31;;;;;;;4.80;2.65;;;4.30;99.90;;;;;;5097529;28;20024;-67
2021/12/03 00:39:57;;;;;;;6.57;2.75;;;4.30;99.90;;;;;;5096169;28;20068;-66
2021/12/03 00:42:23;;;;;;;3.63;2.08;;;4.30;99.90;;;;;;5097392;28;20032;-67
2021/12/03 00:44:52;;;;;;;5.43;2.50;;;4.30;99.90;;;;;;5096130;28;20028;-67
2021/12/03 00:47:19;;;;;;;5.60;2.58;;;4.20;99.90;;;;;;5097343;28;20024;-67
2021/12/03 00:49:45;;;;;;;7.30;2.33;;;4.30;99.90;;;;;;5097228;28;20029;-67
2021/12/03 00:52:11;;;;;;;3.50;2.60;;;4.30;99.90;;;;;;5097131;28;20028;-67
2021/12/03 00:54:37;;;;;;;4.30;2.53;;;4.30;99.90;;;;;;5097181;28;20043;-67
2021/12/03 00:57:03;;;;;;;4.88;2.13;;;4.30;99.90;;;;;;5097116;28;20028;-67
2021/12/03 00:59:29;;;;;;;3.50;2.08;;;4.30;99.90;;;;;;5097138;28;20099;-67
2021/12/03 01:01:56;;;;;;;3.67;2.20;;;4.20;99.90;;;;;;5097030;28;20107;-67
2021/12/03 01:04:22;;;;;;;3.92;1.73;;;4.20;99.90;;;;;;5096684;28;20495;-67
2021/12/03 01:06:48;;;;;;;4.18;2.13;;;4.20;99.90;;;;;;5097164;28;20062;-67
2021/12/03 01:09:14;;;;;;;5.80;2.30;;;4.30;99.90;;;;;;5095617;28;20036;-67
2021/12/03 01:11:40;;;;;;;6.22;1.83;;;4.20;99.90;;;;;;5096121;28;20356;-67
2021/12/03 01:14:06;;;;;;;7.13;2.47;;;4.20;99.90;;;;;;5096782;28;20028;-67
2021/12/03 01:16:32;;;;;;;4.97;1.65;;;4.20;99.90;;;;;;5096460;28;20032;-66
2021/12/03 01:18:58;;;;;;;3.22;1.92;;;4.20;99.90;;;;;;5097030;28;20464;-66
2021/12/03 01:21:24;;;;;;;5.05;2.00;;;4.20;99.90;;;;;;5095298;28;20516;-67
2021/12/03 01:23:51;;;;;;;5.00;2.17;;;4.20;99.90;;;;;;5096326;28;20039;-67
2021/12/03 01:26:18;;;;;;;6.88;2.78;;;4.30;99.90;;;;;;5096557;28;20024;-67
2021/12/03 01:28:44;;;;;;;7.20;2.63;;;4.20;99.90;;;;;;5095388;28;20028;-67
2021/12/03 01:31:12;;;;;;;5.32;2.60;;;4.20;99.90;;;;;;5097513;28;20407;-67
2021/12/03 01:33:37;;;;;;;4.18;2.05;;;4.20;99.90;;;;;;5095696;28;20028;-67
2021/12/03 01:36:03;;;;;;;3.53;1.92;;;4.20;99.90;;;;;;5095019;28;20032;-67
2021/12/03 01:38:29;;;;;;;4.55;2.00;;;4.30;99.90;;;;;;5095015;28;20464;-67
2021/12/03 01:40:55;;;;;;;2.65;2.30;;;4.30;99.90;;;;;;5095945;28;20027;-67
2021/12/03 01:43:26;;;;;;;5.20;2.05;;;4.30;99.90;;;;;;5096180;28;20032;-67
2021/12/03 01:45:59;;;;;;;5.30;2.40;;;4.30;99.90;;;;;;5096235;28;20062;-67
2021/12/03 01:48:26;;;;;;;4.20;2.30;;;4.30;99.90;;;;;;5096479;28;20024;-67
2021/12/03 01:50:52;;;;;;;4.97;2.50;;;4.30;99.90;;;;;;5094836;28;20051;-67
2021/12/03 01:53:25;;;;;;;3.60;2.42;;;4.30;99.90;;;;;;5095699;28;20032;-66
2021/12/03 01:55:52;;;;;;;4.57;2.65;;;4.30;99.90;;;;;;5094727;28;20056;-66
2021/12/03 01:58:18;;;;;;;5.82;3.00;;;4.30;99.90;;;;;;5095915;28;20028;-67
2021/12/03 02:00:48;;;;;;;5.13;2.78;;;4.30;99.90;;;;;;5094595;28;20089;-67
2021/12/03 02:03:15;;;;;;;7.22;2.90;;;4.30;99.90;;;;;;5096145;28;20028;-67
2021/12/03 02:05:42;;;;;;;3.85;2.65;;;4.30;99.90;;;;;;5095490;28;20464;-67
2021/12/03 02:08:08;;;;;;;6.93;2.72;;;4.30;99.90;;;;;;5095488;28;20464;-67
2021/12/03 02:10:53;;;;;;;5.50;3.00;;;4.30;99.90;;;;;;5095749;28;20028;-67
2021/12/03 02:13:19;;;;;;;3.75;2.25;;;4.30;99.90;;;;;;5094301;28;20024;-66
2021/12/03 02:15:46;;;;;;;4.60;2.83;;;4.20;99.90;;;;;;5094296;28;20482;-66
2021/12/03 02:18:13;;;;;;;4.72;2.65;;;4.20;99.90;;;;;;5095608;28;20028;-67
2021/12/03 02:20:48;;;;;;;4.10;2.58;;;4.10;99.90;;;;;;5094227;28;20487;-66
2021/12/03 02:23:15;;;;;;;4.82;2.60;;;4.00;99.90;;;;;;5095603;28;20032;-67
2021/12/03 02:25:42;;;;;;;4.13;2.05;;;4.00;99.90;;;;;;5094107;28;20020;-66
2021/12/03 02:28:08;;;;;;;3.63;2.20;;;3.80;99.90;;;;;;5094124;28;20035;-66
2021/12/03 02:30:35;;;;;;;4.60;2.10;;;3.70;99.90;;;;;;5095265;28;20123;-66
2021/12/03 02:33:01;;;;;;;7.43;2.65;;;3.60;99.90;;;;;;5095336;28;20055;-66
2021/12/03 02:35:27;;;;;;;5.65;2.60;;;3.50;99.90;;;;;;5095220;28;20460;-66
2021/12/03 02:37:53;;;;;;;4.57;2.72;;;3.50;99.90;;;;;;5094863;28;20483;-67
2021/12/03 02:40:20;;;;;;;4.35;2.30;;;3.40;99.90;;;;;;5095396;28;20051;-66
2021/12/03 02:42:47;;;;;;;5.13;2.90;;;3.40;99.90;;;;;;5093921;28;20028;-66
2021/12/03 02:45:14;;;;;;;6.38;2.53;;;3.40;99.90;;;;;;5094945;28;20467;-67
2021/12/03 02:47:40;;;;;;;5.63;2.78;;;3.40;99.90;;;;;;5094985;28;20081;-67
2021/12/03 02:50:08;;;;;;;5.18;2.85;;;3.40;99.90;;;;;;5094618;28;20375;-67
2021/12/03 02:52:34;;;;;;;7.60;2.75;;;3.40;99.90;;;;;;5093541;28;20062;-66
2021/12/03 02:55:00;;;;;;;6.22;3.47;;;3.40;99.90;;;;;;5095136;28;20036;-66
2021/12/03 02:57:26;;;;;;;8.43;3.40;;;3.40;99.90;;;;;;5094766;28;20026;-66
2021/12/03 02:59:52;;;;;;;7.97;3.78;;;3.30;99.90;;;;;;5094822;28;20027;-66
2021/12/03 03:02:19;;;;;;;7.03;3.50;;;3.30;99.90;;;;;;5094960;28;20028;-66
2021/12/03 03:04:44;;;;;;;7.00;4.00;;;3.30;99.90;;;;;;5094675;28;20043;-66
2021/12/03 03:07:10;;;;;;;5.68;2.67;;;3.30;99.90;;;;;;5094307;28;20025;-67
2021/12/03 03:09:36;;;;;;;7.82;3.33;;;3.20;99.90;;;;;;5093254;28;20480;-66
2021/12/03 03:12:02;;;;;;;7.70;3.65;;;3.20;99.90;;;;;;5094425;28;20031;-66
2021/12/03 03:14:28;;;;;;;7.07;3.78;;;3.20;99.90;;;;;;5094396;28;20407;-66
2021/12/03 03:16:55;;;;;;;7.45;2.97;;;3.20;99.90;;;;;;5094425;28;20035;-66
2021/12/03 03:19:23;;;;;;;9.50;4.03;;;3.20;99.90;;;;;;5094829;28;20024;-66
2021/12/03 03:21:48;;;;;;;7.28;3.50;;;3.20;99.90;;;;;;5094914;28;20024;-66
2021/12/03 03:24:15;;;;;;;7.78;3.35;;;3.20;99.90;;;;;;5094274;28;20028;-67
2021/12/03 03:26:43;;;;;;;6.03;3.38;;;3.20;99.90;;;;;;5094514;28;20081;-67
2021/12/03 03:29:11;;;;;;;5.25;2.90;;;3.20;99.90;;;;;;5094254;28;20098;-67
2021/12/03 03:31:39;;;;;;;4.68;2.80;;;3.20;99.90;;;;;;5094445;28;20043;-67
2021/12/03 03:34:06;;;;;;;4.18;2.80;;;3.20;99.90;;;;;;5092861;28;20414;-66
2021/12/03 03:36:34;;;;;;;7.35;3.30;;;3.20;99.90;;;;;;5093907;28;20472;-66
2021/12/03 03:39:00;;;;;;;5.30;2.58;;;3.20;99.90;;;;;;5093854;28;20456;-66
2021/12/03 03:41:26;;;;;;;4.88;2.65;;;3.30;99.90;;;;;;5092782;28;20020;-67
2021/12/03 03:43:51;;;;;;;7.10;2.53;;;3.20;99.90;;;;;;5094087;28;20101;-67
2021/12/03 03:46:17;;;;;;;6.88;2.22;;;3.20;99.90;;;;;;5092791;28;20090;-66
2021/12/03 03:48:43;;;;;;;4.63;2.67;;;3.20;99.90;;;;;;5094311;28;20035;-67
2021/12/03 03:51:09;;;;;;;3.97;2.50;;;3.20;99.90;;;;;;5093935;28;20020;-67
2021/12/03 03:53:35;;;;;;;4.30;2.10;;;3.20;99.90;;;;;;5092502;28;20089;-66
2021/12/03 03:56:00;;;;;;;2.55;1.52;;;3.10;99.90;;;;;;5093397;28;20452;-67
2021/12/03 03:58:26;;;;;;;4.00;2.13;;;3.10;99.90;;;;;;5093884;28;20061;-66
2021/12/03 04:00:52;;;;;;;2.13;1.17;;;3.20;99.90;;;;;;5093942;28;20031;-66
2021/12/03 04:03:18;;;;;;;2.38;1.67;;;3.20;99.90;;;;;;5094096;28;20032;-66
2021/12/03 04:05:44;;;;;;;4.43;1.63;;;3.10;99.90;;;;;;5093550;28;20383;-66
2021/12/03 04:08:10;;;;;;;2.42;1.52;;;3.10;99.90;;;;;;5093806;28;20016;-66
2021/12/03 04:10:36;;;;;;;2.28;1.67;;;3.10;99.90;;;;;;5093511;28;20447;-66
2021/12/03 04:13:02;;;;;;;2.15;1.27;;;3.10;99.90;;;;;;5093431;28;20106;-66
2021/12/03 04:15:28;;;;;;;1.65;1.50;;;3.10;99.90;;;;;;5093770;28;20032;-67
2021/12/03 04:17:54;;;;;;;5.20;1.60;;;3.00;99.90;;;;;;5092419;28;20024;-66
2021/12/03 04:20:21;;;;;;;1.40;1.08;;;3.00;99.90;;;;;;5093954;28;20101;-66
2021/12/03 04:22:47;;;;;;;3.90;1.45;;;3.00;99.90;;;;;;5093398;28;20410;-67
2021/12/03 04:25:16;;;;;;;4.72;1.58;;;3.00;99.90;;;;;;5093692;28;20127;-67
2021/12/03 04:27:43;;;;;;;5.57;1.40;;;3.00;99.90;;;;;;5092731;28;20443;-67
2021/12/03 04:30:14;;;;;;;5.38;1.33;;;2.90;99.90;;;;;;5093717;28;20098;-67
2021/12/03 04:32:40;;;;;;;3.13;1.75;;;2.90;99.90;;;;;;5093740;28;20489;-66
2021/12/03 04:35:06;;;;;;;6.20;1.73;;;2.80;99.90;;;;;;5092343;28;20059;-67
2021/12/03 04:37:32;;;;;;;4.07;2.00;;;2.70;99.90;;;;;;5093496;28;20103;-67
2021/12/03 04:39:58;;;;;;;3.53;1.98;;;2.70;99.90;;;;;;5092332;28;20109;-67
2021/12/03 04:42:23;;;;;;;4.03;1.75;;;2.70;99.90;;;;;;5094067;28;20479;-67
2021/12/03 04:44:49;;;;;;;5.75;1.50;;;2.60;99.90;;;;;;5093462;28;20020;-67
2021/12/03 04:47:15;;;;;;;2.47;1.58;;;2.60;99.90;;;;;;5093431;28;20375;-66
2021/12/03 04:49:41;;;;;;;2.38;1.48;;;2.50;99.90;;;;;;5093113;28;20099;-67
2021/12/03 04:52:07;;;;;;;5.50;1.90;;;2.50;99.90;;;;;;5092590;28;20028;-66
2021/12/03 04:54:33;;;;;;;3.80;1.67;;;2.50;99.90;;;;;;5092096;28;20436;-67
2021/12/03 04:59:43;;;;;;;4.97;1.35;;;2.50;99.90;;;;;;5093135;28;20034;-67
2021/12/03 05:02:08;;;;;;;3.40;1.60;;;2.50;99.90;;;;;;5093306;28;20462;-66
2021/12/03 05:04:38;;;;;;;4.82;1.73;;;2.50;99.90;;;;;;5093049;28;20024;-67
2021/12/03 05:09:34;;;;;;;2.75;1.85;;;2.40;99.90;;;;;;5096896;28;20020;-67
2021/12/03 05:12:00;;;;;;;4.80;1.85;;;2.40;99.90;;;;;;5096723;28;20035;-66
2021/12/03 05:14:27;;;;;;;3.40;2.10;;;2.40;99.90;;;;;;5096754;28;20028;-66
2021/12/03 05:16:53;;;;;;;2.33;1.58;;;2.40;99.90;;;;;;5096558;28;20036;-66
2021/12/03 05:19:19;;;;;;;6.97;1.75;;;2.30;99.90;;;;;;5095397;28;20389;-66
2021/12/03 05:21:45;;;;;;;4.43;1.65;;;2.40;99.90;;;;;;5096605;28;20024;-67
2021/12/03 05:24:11;;;;;;;1.83;1.50;;;2.40;99.90;;;;;;5096751;28;20020;-66
2021/12/03 05:26:39;;;;;;;2.67;1.60;;;2.40;99.90;;;;;;5095275;28;20066;-66
2021/12/03 05:29:06;;;;;;;7.25;2.38;;;2.40;99.90;;;;;;5096334;28;20391;-66
2021/12/03 05:31:32;;;;;;;4.93;1.77;;;2.40;99.90;;;;;;5096361;28;20040;-66
2021/12/03 05:33:58;;;;;;;3.30;2.00;;;2.40;99.90;;;;;;5096697;28;20165;-67
2021/12/03 05:36:24;;;;;;;6.13;1.88;;;2.40;99.90;;;;;;5095062;28;20114;-67
2021/12/03 05:38:50;;;;;;;1.80;1.35;;;2.40;99.90;;;;;;5094975;28;20020;-67
2021/12/03 05:41:16;;;;;;;2.88;1.95;;;2.50;99.90;;;;;;5095729;28;20028;-66
2021/12/03 05:43:42;;;;;;;4.68;2.53;;;2.50;99.90;;;;;;5096167;28;20032;-66
2021/12/03 05:46:08;;;;;;;6.65;2.60;;;2.50;99.90;;;;;;5096699;28;20046;-66
2021/12/03 05:48:34;;;;;;;3.42;2.20;;;2.50;99.90;;;;;;5094767;28;20031;-66
2021/12/03 05:50:59;;;;;;;7.05;2.03;;;2.50;99.90;;;;;;5096006;28;20077;-66
2021/12/03 05:53:25;;;;;;;4.45;2.28;;;2.50;99.90;;;;;;5094562;28;20028;-66
2021/12/03 05:55:51;;;;;;;4.35;2.05;;;2.50;99.90;;;;;;5096186;28;20040;-66
2021/12/03 05:58:18;;;;;;;6.85;2.50;;;2.50;99.90;;;;;;5094544;28;20024;-66
2021/12/03 06:00:47;;;;;;;5.78;2.55;;;2.50;99.90;;;;;;5095894;28;20527;-66
2021/12/03 06:03:13;;;;;;;3.28;2.42;;;2.50;99.90;;;;;;5095565;28;20531;-66
2021/12/03 06:05:57;;;;;;;4.05;2.42;;;2.60;99.90;;;;;;5094539;28;20115;-64
2021/12/03 06:08:23;;;;;;;6.20;1.75;;;2.60;99.90;;;;;;5095989;28;20502;-65
2021/12/03 06:10:49;;;;;;;6.05;1.98;;;2.60;99.90;;;;;;5096028;28;20024;-66
2021/12/03 06:13:14;;;;;;;4.25;2.08;;;2.60;99.90;;;;;;5095755;28;20028;-66
2021/12/03 06:15:40;;;;;;;4.03;1.88;;;2.60;99.90;;;;;;5095504;28;20035;-66
2021/12/03 06:18:06;;;;;;;4.63;2.28;;;2.60;99.90;;;;;;5095012;28;20305;-66
2021/12/03 06:20:31;;;;;;;6.43;3.15;;;2.60;99.90;;;;;;5095475;28;20028;-66
2021/12/03 06:22:57;;;;;;;4.63;2.33;;;2.70;99.90;;;;;;5095385;28;20086;-66
2021/12/03 06:25:23;;;;;;;6.57;2.58;;;2.70;99.90;;;;;;5095632;28;20031;-67
2021/12/03 06:27:49;;;;;;;3.92;2.63;;;2.70;99.90;;;;;;5094679;28;20028;-68
2021/12/03 06:30:18;;;;;;;3.65;1.83;;;2.70;99.90;;;;;;5093720;28;20051;-68
2021/12/03 06:32:44;;;;;;;6.35;2.08;;;2.70;99.90;;;;;;5095059;28;20036;-68
2021/12/03 06:35:12;;;;;;;4.75;2.50;;;2.80;99.90;;;;;;5094951;28;20032;-68
2021/12/03 06:37:38;;;;;;;7.50;3.50;;;2.80;99.90;;;;;;5095147;28;20034;-68
2021/12/03 06:40:08;;;;;;;4.63;3.05;;;2.80;99.90;;;;;;5094675;28;20039;-68
2021/12/03 06:42:34;;;;;;;4.82;2.22;;;2.80;99.90;;;;;;5094728;28;20538;-68
2021/12/03 06:45:03;;;;;;;3.40;2.40;;;2.90;99.90;;;;;;5094696;28;20095;-68
2021/12/03 06:47:29;;;;;;;4.43;2.88;;;2.80;99.90;;;;;;5093662;28;20024;-68
2021/12/03 06:49:54;;;;;;;7.25;2.75;;;2.80;99.90;;;;;;5094888;28;20028;-68
2021/12/03 06:52:20;;;;;;;3.97;2.55;;;2.80;99.90;;;;;;5094712;28;20115;-67
2021/12/03 06:54:54;;;;;;;4.65;2.70;;;2.80;99.90;;;;;;5094053;28;20028;-67
2021/12/03 06:57:20;;;;;;;5.28;2.97;;;2.70;99.90;;;;;;5094819;28;20031;-67
2021/12/03 06:59:45;;;;;;;4.68;2.90;;;2.70;99.90;;;;;;5094771;28;20024;-67
2021/12/03 07:02:13;;;;;;;5.90;3.30;;;2.70;99.90;;;;;;5093585;28;20093;-67
2021/12/03 07:04:39;;;;;;;7.45;3.05;;;2.80;99.90;;;;;;5094644;28;20066;-67
2021/12/03 07:07:05;;;;;;;4.03;2.80;;;2.80;99.90;;;;;;5094530;28;20051;-67
2021/12/03 07:09:31;;;;;;;4.57;2.88;;;2.80;99.90;;;;;;5093218;28;20055;-68
2021/12/03 07:11:56;;;;;;;7.60;3.47;;;2.80;99.90;;;;;;5094533;28;20035;-67
2021/12/03 07:14:22;;;;;;;5.45;3.20;;;2.90;99.90;;;;;;5094862;28;20090;-67
2021/12/03 07:16:48;;;;;;;6.93;2.97;;;2.90;99.90;;;;;;5093128;28;20024;-68
2021/12/03 07:19:14;;;;;;;4.35;2.65;;;2.90;99.90;;;;;;5092555;28;20035;-68
2021/12/03 07:21:40;;;;;;;5.47;3.13;;;3.00;99.90;;;;;;5094084;28;20062;-68
2021/12/03 07:24:06;;;;;;;4.25;2.60;;;3.00;99.90;;;;;;5094577;28;20035;-68
2021/12/03 07:26:32;;;;;;;5.00;2.65;;;3.00;99.90;;;;;;5093957;28;20032;-67
2021/12/03 07:28:58;;;;;;;7.70;3.50;;;3.10;99.90;;;;;;5106725;28;20077;-68
2021/12/03 07:31:24;;;;;;;7.20;3.20;;;3.10;99.90;;;;;;5091423;28;20050;-67
2021/12/03 07:33:51;;;;;;;5.53;3.33;;;3.10;99.90;;;;;;5093747;28;20049;-67
2021/12/03 07:36:16;;;;;;;6.28;3.33;;;3.20;99.90;;;;;;5093705;28;20027;-67
2021/12/03 07:38:42;;;;;;;7.93;3.15;;;3.30;99.90;;;;;;5093596;28;20360;-67
2021/12/03 07:41:08;;;;;;;6.10;3.80;;;3.30;99.90;;;;;;5093726;28;20073;-67
2021/12/03 07:43:34;;;;;;;8.05;3.90;;;3.40;99.90;;;;;;5093657;28;20035;-67
2021/12/03 07:46:00;;;;;;;7.32;4.35;;;3.40;99.90;;;;;;5093246;28;20517;-67
2021/12/03 07:48:25;;;;;;;6.25;3.88;;;3.40;99.90;;;;;;5092792;28;20111;-67
2021/12/03 07:50:53;;;;;;;9.52;4.22;;;3.40;99.90;;;;;;5091676;28;20430;-67
2021/12/03 07:53:19;;;;;;;8.05;4.90;;;3.40;99.90;;;;;;5093443;28;20028;-67
2021/12/03 07:55:50;;;;;;;5.95;3.85;;;3.40;99.90;;;;;;5091367;28;20039;-67
2021/12/03 07:58:17;;;;;;;6.20;3.63;;;3.40;99.90;;;;;;5093244;28;20028;-67
2021/12/03 08:00:44;;;;;;;5.60;3.63;;;3.30;99.90;;;;;;5093916;28;20034;-67
2021/12/03 08:03:11;;;;;;;6.32;3.90;;;3.30;99.90;;;;;;5093389;28;20111;-67
2021/12/03 08:05:37;;;;;;;6.50;3.83;;;3.50;99.90;;;;;;5093046;28;20379;-68
2021/12/03 08:08:03;;;;;;;5.13;3.67;;;3.60;99.90;;;;;;5092718;28;20036;-67
2021/12/03 08:10:29;;;;;;;6.18;3.78;;;3.70;99.90;;;;;;5093425;28;20077;-68
2021/12/03 08:12:55;;;;;;;4.40;3.22;;;3.90;99.90;;;;;;5092260;28;20111;-67
2021/12/03 08:15:21;;;;;;;6.55;3.28;;;3.90;99.90;;;;;;5093516;28;20107;-67
2021/12/03 08:17:49;;;;;;;5.07;3.10;;;3.80;99.90;;;;;;5092062;28;20024;-67
2021/12/03 08:20:16;;;;;;;5.88;3.38;;;3.70;99.90;;;;;;5093360;28;20020;-67
2021/12/03 08:22:43;;;;;;;6.07;3.53;;;3.60;99.90;;;;;;5092565;28;20029;-68
2021/12/03 08:25:09;;;;;;;8.40;3.40;;;3.60;99.90;;;;;;5093688;28;20031;-67
2021/12/03 08:27:36;;;;;;;4.95;3.08;;;3.70;99.90;;;;;;5092824;28;20472;-67
2021/12/03 08:30:04;;;;;;;7.03;4.20;;;3.80;99.90;;;;;;5086671;28;20053;-67
2021/12/03 08:32:30;;;;;;;6.25;3.85;;;3.80;99.90;;;;;;5055072;28;20099;-67
2021/12/03 08:34:55;;;;;;;4.88;2.97;;;4.00;99.90;;;;;;5073080;28;20029;-67
2021/12/03 08:37:21;;;;;;;4.22;2.83;;;4.00;99.90;;;;;;5072494;28;20478;-68
2021/12/03 08:39:47;;;;;;;4.90;3.03;;;3.90;99.90;;;;;;5054511;28;20115;-67
2021/12/03 08:42:13;;;;;;;5.03;2.85;;;3.90;99.90;;;;;;5074138;28;20059;-67
2021/12/03 08:44:40;;;;;;;3.38;2.55;;;3.80;99.90;;;;;;5058975;28;20056;-67
2021/12/03 08:47:07;;;;;;;3.45;2.65;;;3.80;99.90;;;;;;5059071;28;20032;-67
2021/12/03 08:49:54;;;;;;;3.85;2.50;;;3.90;99.90;;;;;;5058501;28;20020;-67
2021/12/03 08:52:29;;;;;;;4.82;2.35;;;3.90;99.90;;;;;;5076417;28;20037;-67
2021/12/03 08:54:55;;;;;;;4.15;2.60;;;3.90;99.90;;;;;;5058085;28;20025;-67
2021/12/03 08:57:25;;;;;;;2.90;1.95;;;3.90;99.90;;;;;;5076280;28;20052;-67
2021/12/03 08:59:53;;;;;;;2.72;1.80;;;3.90;99.90;;;;;;5058612;28;20028;-67
2021/12/03 09:02:19;;;;;;;5.78;1.52;;;3.90;99.90;;;;;;5058873;28;20036;-66
2021/12/03 09:04:45;;;;;;;3.72;2.05;;;3.90;99.90;;;;;;5076342;28;20025;-67
2021/12/03 09:07:11;;;;;;;2.78;1.65;;;3.90;99.90;;;;;;5058057;28;20472;-67
2021/12/03 09:09:37;;;;;;;1.30;1.20;;;3.80;99.90;;;;;;5075899;28;20099;-67
2021/12/03 09:12:03;;;;;;;2.45;1.52;;;3.70;99.90;;;;;;5076117;28;20025;-67
2021/12/03 09:14:49;;;;;;;1.42;1.15;;;3.70;99.90;;;;;;5075990;28;20036;-67
2021/12/03 09:19:57;;;;;;;3.95;2.00;;;3.50;99.90;;;;;;5075891;28;20059;-67
2021/12/03 09:25:11;;;;;;;;;;;3.50;99.90;;;;;;5075615;28;20035;-67
2021/12/03 09:27:37;;;;;;;3.55;1.52;;;3.60;99.90;;;;;;5075789;28;20352;-68
2021/12/03 09:32:55;;;;;;;4.70;2.50;;;3.80;99.90;;;;;;5075564;28;20040;-67
2021/12/03 09:35:23;;;;;;;5.05;3.03;;;3.90;99.90;;;;;;5075613;28;20029;-67
2021/12/03 09:37:49;;;;;;;10.18;3.55;;;4.00;99.90;;;;;;5075739;28;20024;-67
2021/12/03 09:40:21;;;;;;;7.45;3.28;;;4.10;99.90;;;;;;5074882;28;20031;-67
2021/12/03 09:42:47;;;;;;;6.43;3.55;;;4.20;99.90;;;;;;5057980;28;20036;-67
2021/12/03 09:45:13;;;;;;;7.20;3.85;;;4.40;99.90;;;;;;5075388;28;20074;-66
2021/12/03 09:47:39;;;;;;;6.65;3.78;;;4.30;99.90;;;;;;5075401;28;20083;-67
2021/12/03 09:50:12;;;;;;;12.30;4.05;;;4.20;99.90;;;;;;5075100;28;20072;-69
2021/12/03 09:53:21;;;;;;;13.13;5.20;;;4.40;99.90;;;;;;5075371;28;20029;-60
2021/12/03 09:55:31;;;;;;;12.50;4.20;;;4.60;99.90;;;;;;5071984;28;20068;-73
2021/12/03 09:58:19;;;;;;;9.07;4.13;;;4.60;99.90;;;;;;5075200;28;20055;-66
2021/12/03 10:01:11;;;;;;;6.75;3.55;;;4.50;99.90;;;;;;5057345;28;20442;-66
2021/12/03 10:18:04;;;;;;;7.75;4.60;;;6.30;99.90;;;;;;5074382;28;20131;-66
2021/12/03 10:48:50;;;;;;;6.95;3.03;;;6.60;99.90;;;;;;5074294;28;20036;-66
2021/12/03 10:54:13;;;;;;;4.90;3.37;;;7.10;99.90;;;;;;5073900;28;20105;-66
2021/12/03 11:03:30;;;;;;;9.52;3.47;;;7.10;99.90;;;;;;5073819;28;20183;-66
2021/12/03 12:15:08;;;;;;;3.90;2.42;;;4.70;99.90;;;;;;5073475;28;20048;-66
2021/12/03 12:27:17;;;;;;;3.78;2.58;;;4.50;99.90;;;;;;5077472;28;20082;-66
2021/12/03 12:38:27;;;;;;;4.35;2.88;;;5.20;99.90;;;;;;5076702;28;20132;-66
2021/12/03 14:51:12;;;;;;;4.03;2.28;;;3.50;99.90;;;;;;5074667;28;20099;-66
2021/12/03 14:56:13;;;;;;;2.85;1.60;;;3.50;99.90;;;;;;5074481;28;20040;-66
2021/12/03 14:58:50;;;;;;;3.60;2.33;;;3.50;99.90;;;;;;5074442;28;20074;-66
2021/12/03 15:06:30;;;;;;;2.50;1.88;;;3.50;99.90;;;;;;5074414;28;20103;-66
2021/12/03 15:22:37;;;;;;;3.28;1.98;;;3.30;99.90;;;;;;5074369;28;20036;-66
2021/12/03 15:31:05;;;;;;;4.30;2.05;;;3.00;99.90;;;;;;5066690;28;20049;-66
2021/12/03 15:36:09;;;;;;;3.63;2.22;;;2.80;99.90;;;;;;5073915;28;20025;-67
2021/12/03 15:38:52;;;;;;;3.28;1.95;;;2.70;99.90;;;;;;5073971;28;20029;-72
2021/12/03 15:51:46;;;;;;;2.85;2.13;;;2.70;99.90;;;;;;5073897;28;20059;-66
2021/12/03 16:24:08;;;;;;;6.20;2.50;;;2.00;99.90;;;;;;5073700;28;20456;-67
2021/12/03 16:53:08;;;;;;;11.35;3.10;;;1.70;99.90;;;;;;5073026;28;20483;-66
2021/12/03 16:55:34;;;;;;;7.43;3.47;;;1.70;99.90;;;;;;5073028;28;20116;-66
2021/12/03 16:57:59;;;;;;;5.38;3.20;;;1.70;99.90;;;;;;5054762;28;20119;-66
2021/12/03 17:03:13;;;;;;;5.45;2.83;;;1.60;99.90;;;;;;5074188;28;20081;-66
2021/12/03 17:06:55;;;;;;;5.68;3.22;;;1.60;99.90;;;;;;5076721;28;20021;-66
2021/12/03 17:09:17;;;;;;;6.00;3.13;;;1.60;99.90;;;;;;5075589;28;20035;-67
2021/12/03 17:14:23;;;;;;;5.28;3.47;;;1.60;99.90;;;;;;5076240;28;20058;-66
2021/12/03 17:49:03;;;;;;;7.97;3.45;;;1.20;99.90;;;;;;5075952;28;20021;-68
2021/12/03 17:51:49;;;;;;;2.55;1.80;;;1.20;99.90;;;;;;5057986;28;20031;-68
2021/12/03 17:57:09;;;;;;;5.05;2.97;;;1.20;99.90;;;;;;5075603;28;20039;-74
2021/12/03 17:59:40;;;;;;;8.93;3.15;;;1.20;99.90;;;;;;5075901;28;20043;-74
2021/12/03 18:02:21;;;;;;;7.05;4.03;;;1.20;99.90;;;;;;5075774;28;20044;-73
2021/12/03 18:07:44;;;;;;;4.88;2.90;;;1.10;99.90;;;;;;5075609;28;20021;-75
2021/12/03 18:59:05;;;;;;;11.98;5.95;;;-0.40;99.90;;;;;;5074630;28;20029;-66
2021/12/03 19:01:33;;;;;;;10.63;4.45;;;-0.40;99.90;;;;;;5057151;28;20028;-66
2021/12/03 19:07:02;;;;;;;8.25;3.58;;;-0.50;99.90;;;;;;5074516;28;20033;-66
2021/12/03 19:09:32;;;;;;;6.90;3.45;;;-0.50;99.90;;;;;;5056637;28;20029;-66
2021/12/03 19:12:05;;;;;;;9.50;4.05;;;-0.60;99.90;;;;;;5074557;28;20131;-66
2021/12/03 19:14:35;;;;;;;9.38;5.03;;;-0.60;99.90;;;;;;5074317;28;20448;-66
2021/12/03 19:17:01;;;;;;;6.22;3.80;;;-0.70;99.90;;;;;;5074175;28;20035;-66
2021/12/03 19:19:29;;;;;;;7.88;4.15;;;-0.70;99.90;;;;;;5074163;28;20106;-66
2021/12/03 19:21:58;;;;;;;9.02;4.20;;;-0.70;99.90;;;;;;5056102;28;20028;-66
2021/12/03 19:24:24;;;;;;;;;;;-0.80;99.90;;;;;;5056225;28;20032;-66
2021/12/03 19:26:50;;;;;;;8.07;4.07;;;-0.80;99.90;;;;;;5072912;28;19904;-66
2021/12/03 19:29:19;;;;;;;8.85;4.35;;;-0.90;99.90;;;;;;5074009;28;20027;-66
2021/12/03 19:31:50;;;;;;;9.93;5.28;;;-1.00;99.90;;;;;;5074003;28;20037;-66
2021/12/03 19:34:19;;;;;;;14.35;5.88;;;-1.00;99.90;;;;;;5074004;28;20032;-66
2021/12/03 19:36:45;;;;;;;15.52;6.25;;;-1.00;99.90;;;;;;5073989;28;20035;-66
2021/12/03 19:39:14;;;;;;;16.42;5.85;;;-1.00;99.90;;;;;;5073701;28;20377;-66
2021/12/03 19:44:11;;;;;;;12.05;5.03;;;-1.00;99.90;;;;;;5073879;28;20352;-66
2021/12/03 19:46:39;;;;;;;11.70;6.72;;;-1.00;99.90;;;;;;5056130;28;20020;-66
2021/12/03 19:51:41;;;;;;;12.32;5.95;;;-1.00;99.90;;;;;;5073808;28;20361;-66
2021/12/03 19:54:07;;;;;;;22.38;7.38;;;-1.00;99.90;;;;;;5055746;28;20031;-66
2021/12/03 19:56:33;;;;;;;17.92;7.90;;;-1.00;99.90;;;;;;5073764;28;20024;-67
2021/12/03 19:59:00;;;;;;;11.50;5.90;;;-1.10;99.90;;;;;;5073711;28;20129;-66
2021/12/03 20:01:33;;;;;;;14.40;7.05;;;-1.10;99.90;;;;;;5073915;28;20096;-64
2021/12/03 20:03:59;;;;;;;16.95;6.88;;;-0.90;99.90;;;;;;5074172;28;20063;-66
2021/12/03 20:06:25;;;;;;;13.02;7.15;;;-1.00;99.90;;;;;;5073695;28;20036;-63
2021/12/03 20:08:54;;;;;;;16.95;7.25;;;-1.00;99.90;;;;;;5073852;28;20467;-66
2021/12/03 20:11:22;;;;;;;13.48;6.88;;;-1.00;99.90;;;;;;5073617;28;20025;-64
2021/12/03 20:13:50;;;;;;;13.77;7.82;;;-1.00;99.90;;;;;;5073579;28;20086;-64
2021/12/03 20:18:57;;;;;;;13.63;6.47;;;-1.00;99.90;;;;;;5073494;28;20388;-66
2021/12/03 20:21:26;;;;;;;;;;;-1.20;99.90;;;;;;5074106;28;20024;-66
2021/12/03 20:31:23;;;;;;;16.52;7.80;;;-1.30;99.90;;;;;;5073903;28;20067;-79
2021/12/03 20:38:50;;;;;;;17.65;8.27;;;-1.30;99.90;;;;;;5075969;28;20029;-74
2021/12/03 20:41:26;;;;;;;13.35;6.97;;;-1.30;99.90;;;;;;5077516;28;20430;-64
2021/12/03 20:46:36;;;;;;;15.40;6.88;;;-1.40;99.90;;;;;;5076829;28;20025;-66
2021/12/03 20:49:19;;;;;;;15.15;6.90;;;-1.40;99.90;;;;;;5059146;28;20032;-64
2021/12/03 20:54:35;;;;;;;11.50;6.88;;;-1.40;99.90;;;;;;5076826;28;20039;-65
2021/12/03 20:57:28;;;;;;;11.55;6.32;;;-1.40;99.90;;;;;;5076987;28;20025;-66
2021/12/03 21:10:49;;;;;;;13.82;5.88;;;-1.60;99.90;;;;;;5076435;28;20047;-64
2021/12/03 21:13:24;;;;;;;9.95;6.30;;;-1.60;99.90;;;;;;5076682;28;20039;-65
2021/12/03 21:18:36;;;;;;;13.88;6.28;;;-1.80;99.90;;;;;;5076598;28;20040;-65
2021/12/03 21:21:17;;;;;;;14.07;6.00;;;-1.90;99.90;;;;;;5058783;28;20028;-65
2021/12/03 21:23:45;;;;;;;12.40;7.28;;;-2.00;99.90;;;;;;5076534;28;20029;-65
2021/12/03 21:26:15;;;;;;;14.13;6.20;;;-2.00;99.90;;;;;;5058800;28;20399;-65
2021/12/03 21:39:23;;;;;;;10.35;5.88;;;-2.10;99.90;;;;;;5076935;28;20078;-66
2021/12/03 21:41:49;;;;;;;8.15;5.03;;;-2.10;99.90;;;;;;5058640;28;20058;-65
2021/12/03 21:44:16;;;;;;;11.85;6.60;;;-2.20;99.90;;;;;;5058091;28;20029;-65